sensor_id;sensor_type;location;lat;lon;timestamp;temperature;humidity
15343;DHT22;7771;48.478;8.936;2023-06-22T00:02:28;22.30;99.90
15343;DHT22;7771;48.478;8.936;2023-06-22T00:04:55;22.30;99.90
15343;DHT22;7771;48.478;8.936;2023-06-22T00:07:22;22.30;99.90
15343;DHT22;7771;48.478;8.936;2023-06-22T00:09:49;22.20;99.90
15343;DHT22;7771;48.478;8.936;2023-06-22T00:12:16;22.20;99.90
15343;DHT22;7771;48.478;8.936;2023-06-22T00:14:44;22.20;99.90
15343;DHT22;7771;48.478;8.936;2023-06-22T00:17:11;22.10;99.90
15343;DHT22;7771;48.478;8.936;2023-06-22T00:19:38;22.10;99.90
15343;DHT22;7771;48.478;8.936;2023-06-22T00:22:04;22.10;99.90
15343;DHT22;7771;48.478;8.936;2023-06-22T00:26:59;22.00;99.90
15343;DHT22;7771;48.478;8.936;2023-06-22T00:29:27;22.00;99.90
15343;DHT22;7771;48.478;8.936;2023-06-22T00:31:55;22.00;99.90
15343;DHT22;7771;48.478;8.936;2023-06-22T00:34:23;21.90;99.90
15343;DHT22;7771;48.478;8.936;2023-06-22T00:36:49;21.90;99.90
15343;DHT22;7771;48.478;8.936;2023-06-22T00:39:16;21.80;99.90
15343;DHT22;7771;48.478;8.936;2023-06-22T00:41:43;21.80;99.90
15343;DHT22;7771;48.478;8.936;2023-06-22T00:44:10;21.80;99.90
15343;DHT22;7771;48.478;8.936;2023-06-22T00:46:38;21.80;99.90
15343;DHT22;7771;48.478;8.936;2023-06-22T00:49:05;21.80;99.90
15343;DHT22;7771;48.478;8.936;2023-06-22T00:51:31;21.80;99.90
15343;DHT22;7771;48.478;8.936;2023-06-22T00:53:59;21.70;99.90
15343;DHT22;7771;48.478;8.936;2023-06-22T00:56:26;21.70;99.90
15343;DHT22;7771;48.478;8.936;2023-06-22T00:58:52;21.70;99.90
15343;DHT22;7771;48.478;8.936;2023-06-22T01:01:19;21.80;99.90
15343;DHT22;7771;48.478;8.936;2023-06-22T01:03:46;21.70;99.90
15343;DHT22;7771;48.478;8.936;2023-06-22T01:06:15;21.50;99.90
15343;DHT22;7771;48.478;8.936;2023-06-22T01:11:18;21.50;99.90
15343;DHT22;7771;48.478;8.936;2023-06-22T01:14:06;21.40;99.90
15343;DHT22;7771;48.478;8.936;2023-06-22T01:19:01;21.30;99.90
15343;DHT22;7771;48.478;8.936;2023-06-22T01:21:28;21.30;99.90
15343;DHT22;7771;48.478;8.936;2023-06-22T01:26:54;21.30;99.90
15343;DHT22;7771;48.478;8.936;2023-06-22T01:29:15;21.20;99.90
15343;DHT22;7771;48.478;8.936;2023-06-22T01:31:42;21.20;99.90
15343;DHT22;7771;48.478;8.936;2023-06-22T01:34:08;21.20;99.90
15343;DHT22;7771;48.478;8.936;2023-06-22T01:36:36;21.20;99.90
15343;DHT22;7771;48.478;8.936;2023-06-22T01:39:03;21.30;99.90
15343;DHT22;7771;48.478;8.936;2023-06-22T01:41:30;21.30;99.90
15343;DHT22;7771;48.478;8.936;2023-06-22T01:43:57;21.30;99.90
15343;DHT22;7771;48.478;8.936;2023-06-22T01:46:24;21.30;99.90
15343;DHT22;7771;48.478;8.936;2023-06-22T01:48:51;21.30;99.90
15343;DHT22;7771;48.478;8.936;2023-06-22T01:51:19;21.30;99.90
15343;DHT22;7771;48.478;8.936;2023-06-22T01:53:46;21.30;99.90
15343;DHT22;7771;48.478;8.936;2023-06-22T01:56:15;21.30;99.90
15343;DHT22;7771;48.478;8.936;2023-06-22T01:58:41;21.30;99.90
15343;DHT22;7771;48.478;8.936;2023-06-22T02:01:10;21.30;99.90
15343;DHT22;7771;48.478;8.936;2023-06-22T02:03:38;21.30;99.90
15343;DHT22;7771;48.478;8.936;2023-06-22T02:06:05;21.20;99.90
15343;DHT22;7771;48.478;8.936;2023-06-22T02:08:34;21.20;99.90
15343;DHT22;7771;48.478;8.936;2023-06-22T02:10:58;21.20;99.90
15343;DHT22;7771;48.478;8.936;2023-06-22T02:13:26;21.10;99.90
15343;DHT22;7771;48.478;8.936;2023-06-22T02:15:53;21.10;99.90
15343;DHT22;7771;48.478;8.936;2023-06-22T02:18:20;21.10;99.90
15343;DHT22;7771;48.478;8.936;2023-06-22T02:20:47;21.10;99.90
15343;DHT22;7771;48.478;8.936;2023-06-22T02:23:14;21.00;99.90
15343;DHT22;7771;48.478;8.936;2023-06-22T02:25:41;21.00;99.90
15343;DHT22;7771;48.478;8.936;2023-06-22T02:28:07;21.00;99.90
15343;DHT22;7771;48.478;8.936;2023-06-22T02:30:34;21.00;99.90
15343;DHT22;7771;48.478;8.936;2023-06-22T02:33:01;21.10;99.90
15343;DHT22;7771;48.478;8.936;2023-06-22T02:35:28;21.10;99.90
15343;DHT22;7771;48.478;8.936;2023-06-22T02:40:26;20.90;99.90
15343;DHT22;7771;48.478;8.936;2023-06-22T02:42:53;20.90;99.90
15343;DHT22;7771;48.478;8.936;2023-06-22T02:45:20;20.90;99.90
15343;DHT22;7771;48.478;8.936;2023-06-22T02:47:47;20.90;99.90
15343;DHT22;7771;48.478;8.936;2023-06-22T02:50:14;20.80;99.90
15343;DHT22;7771;48.478;8.936;2023-06-22T02:52:41;20.80;99.90
15343;DHT22;7771;48.478;8.936;2023-06-22T02:55:08;20.80;99.90
15343;DHT22;7771;48.478;8.936;2023-06-22T02:57:35;20.80;99.90
15343;DHT22;7771;48.478;8.936;2023-06-22T03:02:32;20.60;99.90
15343;DHT22;7771;48.478;8.936;2023-06-22T03:04:58;20.60;99.90
15343;DHT22;7771;48.478;8.936;2023-06-22T03:07:26;20.50;99.90
15343;DHT22;7771;48.478;8.936;2023-06-22T03:12:20;20.50;99.90
15343;DHT22;7771;48.478;8.936;2023-06-22T03:14:47;20.50;99.90
15343;DHT22;7771;48.478;8.936;2023-06-22T03:17:14;20.40;99.90
15343;DHT22;7771;48.478;8.936;2023-06-22T03:22:09;20.40;99.90
15343;DHT22;7771;48.478;8.936;2023-06-22T03:24:36;20.30;99.90
15343;DHT22;7771;48.478;8.936;2023-06-22T03:27:03;20.40;99.90
15343;DHT22;7771;48.478;8.936;2023-06-22T03:29:31;20.30;99.90
15343;DHT22;7771;48.478;8.936;2023-06-22T03:31:57;20.30;99.90
15343;DHT22;7771;48.478;8.936;2023-06-22T03:34:26;20.30;99.90
15343;DHT22;7771;48.478;8.936;2023-06-22T03:36:52;20.30;99.90
15343;DHT22;7771;48.478;8.936;2023-06-22T03:39:19;20.20;99.90
15343;DHT22;7771;48.478;8.936;2023-06-22T03:44:14;20.20;99.90
15343;DHT22;7771;48.478;8.936;2023-06-22T03:46:40;20.20;99.90
15343;DHT22;7771;48.478;8.936;2023-06-22T03:49:08;20.20;99.90
15343;DHT22;7771;48.478;8.936;2023-06-22T03:51:34;20.20;99.90
15343;DHT22;7771;48.478;8.936;2023-06-22T03:54:02;20.30;99.90
15343;DHT22;7771;48.478;8.936;2023-06-22T03:58:56;20.20;99.90
15343;DHT22;7771;48.478;8.936;2023-06-22T04:01:23;20.20;99.90
15343;DHT22;7771;48.478;8.936;2023-06-22T04:03:49;20.20;99.90
15343;DHT22;7771;48.478;8.936;2023-06-22T04:06:16;20.20;99.90
15343;DHT22;7771;48.478;8.936;2023-06-22T04:16:08;20.30;99.90
15343;DHT22;7771;48.478;8.936;2023-06-22T04:18:35;20.30;99.90
15343;DHT22;7771;48.478;8.936;2023-06-22T04:21:01;20.30;99.90
15343;DHT22;7771;48.478;8.936;2023-06-22T04:23:29;20.30;99.90
15343;DHT22;7771;48.478;8.936;2023-06-22T04:25:55;20.30;99.90
15343;DHT22;7771;48.478;8.936;2023-06-22T04:28:23;20.40;99.90
15343;DHT22;7771;48.478;8.936;2023-06-22T04:30:49;20.40;99.90
15343;DHT22;7771;48.478;8.936;2023-06-22T04:33:17;20.40;99.90
15343;DHT22;7771;48.478;8.936;2023-06-22T04:35:45;20.50;99.90
15343;DHT22;7771;48.478;8.936;2023-06-22T04:38:12;20.50;99.90
15343;DHT22;7771;48.478;8.936;2023-06-22T04:40:39;20.50;99.90
15343;DHT22;7771;48.478;8.936;2023-06-22T04:43:06;20.60;99.90
15343;DHT22;7771;48.478;8.936;2023-06-22T04:45:33;20.60;99.90
15343;DHT22;7771;48.478;8.936;2023-06-22T04:48:01;20.70;99.90
15343;DHT22;7771;48.478;8.936;2023-06-22T04:50:28;20.70;99.90
15343;DHT22;7771;48.478;8.936;2023-06-22T04:52:56;20.80;99.90
15343;DHT22;7771;48.478;8.936;2023-06-22T04:55:24;20.90;99.90
15343;DHT22;7771;48.478;8.936;2023-06-22T04:57:51;20.90;99.90
15343;DHT22;7771;48.478;8.936;2023-06-22T05:00:19;20.90;99.90
15343;DHT22;7771;48.478;8.936;2023-06-22T05:02:45;20.90;99.90
15343;DHT22;7771;48.478;8.936;2023-06-22T05:05:13;21.00;99.90
15343;DHT22;7771;48.478;8.936;2023-06-22T05:07:42;21.10;99.90
15343;DHT22;7771;48.478;8.936;2023-06-22T05:10:11;21.10;99.90
15343;DHT22;7771;48.478;8.936;2023-06-22T05:15:07;21.30;99.90
15343;DHT22;7771;48.478;8.936;2023-06-22T05:17:33;21.40;99.90
15343;DHT22;7771;48.478;8.936;2023-06-22T05:20:00;21.50;99.90
15343;DHT22;7771;48.478;8.936;2023-06-22T05:22:27;21.60;99.90
15343;DHT22;7771;48.478;8.936;2023-06-22T05:24:54;21.70;99.90
15343;DHT22;7771;48.478;8.936;2023-06-22T05:29:49;21.90;99.90
15343;DHT22;7771;48.478;8.936;2023-06-22T05:32:16;22.00;99.90
15343;DHT22;7771;48.478;8.936;2023-06-22T05:34:44;22.10;99.90
15343;DHT22;7771;48.478;8.936;2023-06-22T05:37:10;22.30;99.90
15343;DHT22;7771;48.478;8.936;2023-06-22T05:42:05;22.40;99.90
15343;DHT22;7771;48.478;8.936;2023-06-22T05:44:33;22.50;99.90
15343;DHT22;7771;48.478;8.936;2023-06-22T05:47:00;22.60;99.90
15343;DHT22;7771;48.478;8.936;2023-06-22T05:49:27;22.60;99.90
15343;DHT22;7771;48.478;8.936;2023-06-22T05:51:54;22.70;99.90
15343;DHT22;7771;48.478;8.936;2023-06-22T05:54:21;22.70;99.90
15343;DHT22;7771;48.478;8.936;2023-06-22T05:56:47;22.80;99.90
15343;DHT22;7771;48.478;8.936;2023-06-22T05:59:14;22.90;99.90
15343;DHT22;7771;48.478;8.936;2023-06-22T06:01:41;22.90;99.90
15343;DHT22;7771;48.478;8.936;2023-06-22T06:04:09;23.00;99.90
15343;DHT22;7771;48.478;8.936;2023-06-22T06:06:35;23.00;99.90
15343;DHT22;7771;48.478;8.936;2023-06-22T06:09:03;23.10;99.90
15343;DHT22;7771;48.478;8.936;2023-06-22T06:11:29;23.10;99.90
15343;DHT22;7771;48.478;8.936;2023-06-22T06:13:55;23.20;99.90
15343;DHT22;7771;48.478;8.936;2023-06-22T06:16:22;23.20;99.90
15343;DHT22;7771;48.478;8.936;2023-06-22T06:18:49;23.30;99.90
15343;DHT22;7771;48.478;8.936;2023-06-22T06:21:16;23.50;99.90
15343;DHT22;7771;48.478;8.936;2023-06-22T06:23:43;23.60;99.90
15343;DHT22;7771;48.478;8.936;2023-06-22T06:26:11;23.60;99.90
15343;DHT22;7771;48.478;8.936;2023-06-22T06:28:38;23.70;99.90
15343;DHT22;7771;48.478;8.936;2023-06-22T06:31:06;23.80;99.90
15343;DHT22;7771;48.478;8.936;2023-06-22T06:33:32;24.00;99.90
15343;DHT22;7771;48.478;8.936;2023-06-22T06:38:29;24.30;99.90
15343;DHT22;7771;48.478;8.936;2023-06-22T06:40:56;24.50;99.90
15343;DHT22;7771;48.478;8.936;2023-06-22T06:43:23;25.00;99.90
15343;DHT22;7771;48.478;8.936;2023-06-22T06:45:50;25.90;99.90
15343;DHT22;7771;48.478;8.936;2023-06-22T06:48:17;26.80;99.90
15343;DHT22;7771;48.478;8.936;2023-06-22T06:53:13;28.80;99.90
15343;DHT22;7771;48.478;8.936;2023-06-22T06:55:41;29.70;99.90
15343;DHT22;7771;48.478;8.936;2023-06-22T06:58:08;30.60;99.90
15343;DHT22;7771;48.478;8.936;2023-06-22T07:00:35;31.50;99.90
15343;DHT22;7771;48.478;8.936;2023-06-22T07:03:03;32.20;98.40
15343;DHT22;7771;48.478;8.936;2023-06-22T07:05:30;32.80;96.30
15343;DHT22;7771;48.478;8.936;2023-06-22T07:07:57;33.40;94.60
15343;DHT22;7771;48.478;8.936;2023-06-22T07:10:24;33.90;93.50
15343;DHT22;7771;48.478;8.936;2023-06-22T07:12:50;34.30;92.40
15343;DHT22;7771;48.478;8.936;2023-06-22T07:15:17;34.70;91.20
15343;DHT22;7771;48.478;8.936;2023-06-22T07:17:45;35.00;90.30
15343;DHT22;7771;48.478;8.936;2023-06-22T07:20:12;35.30;87.60
15343;DHT22;7771;48.478;8.936;2023-06-22T07:25:08;35.60;86.20
15343;DHT22;7771;48.478;8.936;2023-06-22T07:27:36;35.70;85.50
15343;DHT22;7771;48.478;8.936;2023-06-22T07:30:04;35.90;84.50
15343;DHT22;7771;48.478;8.936;2023-06-22T07:32:30;36.00;84.50
15343;DHT22;7771;48.478;8.936;2023-06-22T07:34:57;36.20;84.30
15343;DHT22;7771;48.478;8.936;2023-06-22T07:37:24;36.50;83.00
15343;DHT22;7771;48.478;8.936;2023-06-22T07:39:51;36.70;81.80
15343;DHT22;7771;48.478;8.936;2023-06-22T07:42:18;36.80;80.30
15343;DHT22;7771;48.478;8.936;2023-06-22T07:44:45;37.20;79.80
15343;DHT22;7771;48.478;8.936;2023-06-22T07:47:13;37.50;78.60
15343;DHT22;7771;48.478;8.936;2023-06-22T07:49:39;37.80;77.60
15343;DHT22;7771;48.478;8.936;2023-06-22T07:52:06;38.00;76.70
15343;DHT22;7771;48.478;8.936;2023-06-22T07:54:34;38.30;76.20
15343;DHT22;7771;48.478;8.936;2023-06-22T07:57:01;38.40;74.40
15343;DHT22;7771;48.478;8.936;2023-06-22T07:59:28;38.40;74.80
15343;DHT22;7771;48.478;8.936;2023-06-22T08:01:55;38.30;74.20
15343;DHT22;7771;48.478;8.936;2023-06-22T08:04:21;38.30;74.30
15343;DHT22;7771;48.478;8.936;2023-06-22T08:06:48;38.30;74.20
15343;DHT22;7771;48.478;8.936;2023-06-22T08:09:15;38.20;73.80
15343;DHT22;7771;48.478;8.936;2023-06-22T08:11:42;37.70;74.00
15343;DHT22;7771;48.478;8.936;2023-06-22T08:14:10;37.00;74.80
15343;DHT22;7771;48.478;8.936;2023-06-22T08:16:37;36.20;76.10
15343;DHT22;7771;48.478;8.936;2023-06-22T08:19:04;35.40;77.30
15343;DHT22;7771;48.478;8.936;2023-06-22T08:21:31;34.60;79.70
15343;DHT22;7771;48.478;8.936;2023-06-22T08:23:59;33.80;81.10
15343;DHT22;7771;48.478;8.936;2023-06-22T08:26:26;33.30;82.50
15343;DHT22;7771;48.478;8.936;2023-06-22T08:28:53;33.10;84.50
15343;DHT22;7771;48.478;8.936;2023-06-22T08:31:20;33.00;83.90
15343;DHT22;7771;48.478;8.936;2023-06-22T08:33:47;32.70;84.40
15343;DHT22;7771;48.478;8.936;2023-06-22T08:36:14;32.40;85.10
15343;DHT22;7771;48.478;8.936;2023-06-22T08:38:42;32.10;86.40
15343;DHT22;7771;48.478;8.936;2023-06-22T08:41:09;31.80;86.50
15343;DHT22;7771;48.478;8.936;2023-06-22T08:43:35;31.60;87.80
15343;DHT22;7771;48.478;8.936;2023-06-22T08:48:30;31.50;89.30
15343;DHT22;7771;48.478;8.936;2023-06-22T08:50:57;31.70;89.30
15343;DHT22;7771;48.478;8.936;2023-06-22T08:53:24;31.90;89.10
15343;DHT22;7771;48.478;8.936;2023-06-22T08:55:51;32.00;88.10
15343;DHT22;7771;48.478;8.936;2023-06-22T08:58:18;32.10;87.80
15343;DHT22;7771;48.478;8.936;2023-06-22T09:00:44;32.20;87.80
15343;DHT22;7771;48.478;8.936;2023-06-22T09:03:11;32.30;87.60
15343;DHT22;7771;48.478;8.936;2023-06-22T09:05:38;32.40;87.50
15343;DHT22;7771;48.478;8.936;2023-06-22T09:08:04;32.40;87.50
15343;DHT22;7771;48.478;8.936;2023-06-22T09:10:31;32.40;87.40
15343;DHT22;7771;48.478;8.936;2023-06-22T09:12:58;32.50;87.20
15343;DHT22;7771;48.478;8.936;2023-06-22T09:15:24;32.50;87.70
15343;DHT22;7771;48.478;8.936;2023-06-22T09:17:51;32.50;87.50
15343;DHT22;7771;48.478;8.936;2023-06-22T09:20:19;32.50;87.00
15343;DHT22;7771;48.478;8.936;2023-06-22T09:22:46;32.50;87.20
15343;DHT22;7771;48.478;8.936;2023-06-22T09:25:12;32.60;88.10
15343;DHT22;7771;48.478;8.936;2023-06-22T09:27:39;32.70;87.60
15343;DHT22;7771;48.478;8.936;2023-06-22T09:30:07;32.60;87.30
15343;DHT22;7771;48.478;8.936;2023-06-22T09:32:34;32.60;87.00
15343;DHT22;7771;48.478;8.936;2023-06-22T09:35:04;32.70;88.10
15343;DHT22;7771;48.478;8.936;2023-06-22T09:37:28;32.70;87.90
15343;DHT22;7771;48.478;8.936;2023-06-22T09:39:56;32.90;87.50
15343;DHT22;7771;48.478;8.936;2023-06-22T09:42:23;32.80;86.10
15343;DHT22;7771;48.478;8.936;2023-06-22T09:47:22;32.70;86.80
15343;DHT22;7771;48.478;8.936;2023-06-22T09:49:49;32.40;86.70
15343;DHT22;7771;48.478;8.936;2023-06-22T09:54:45;32.20;88.40
15343;DHT22;7771;48.478;8.936;2023-06-22T09:57:12;32.20;88.70
15343;DHT22;7771;48.478;8.936;2023-06-22T09:59:39;32.30;88.40
15343;DHT22;7771;48.478;8.936;2023-06-22T10:02:07;32.20;88.50
15343;DHT22;7771;48.478;8.936;2023-06-22T10:04:34;32.30;88.90
15343;DHT22;7771;48.478;8.936;2023-06-22T10:07:01;32.40;88.90
15343;DHT22;7771;48.478;8.936;2023-06-22T10:09:29;32.40;88.80
15343;DHT22;7771;48.478;8.936;2023-06-22T10:11:56;32.50;88.50
15343;DHT22;7771;48.478;8.936;2023-06-22T10:14:24;32.60;88.70
15343;DHT22;7771;48.478;8.936;2023-06-22T10:16:52;32.70;88.50
15343;DHT22;7771;48.478;8.936;2023-06-22T10:19:18;32.70;88.00
15343;DHT22;7771;48.478;8.936;2023-06-22T10:24:13;32.90;87.20
15343;DHT22;7771;48.478;8.936;2023-06-22T10:26:40;33.00;87.60
15343;DHT22;7771;48.478;8.936;2023-06-22T10:29:08;33.10;85.90
15343;DHT22;7771;48.478;8.936;2023-06-22T10:31:35;33.10;85.40
15343;DHT22;7771;48.478;8.936;2023-06-22T10:34:02;33.30;86.60
15343;DHT22;7771;48.478;8.936;2023-06-22T10:36:30;33.40;87.50
15343;DHT22;7771;48.478;8.936;2023-06-22T10:41:24;33.50;87.10
15343;DHT22;7771;48.478;8.936;2023-06-22T10:43:51;33.50;87.20
15343;DHT22;7771;48.478;8.936;2023-06-22T10:46:18;33.50;87.10
15343;DHT22;7771;48.478;8.936;2023-06-22T10:48:45;33.30;86.80
15343;DHT22;7771;48.478;8.936;2023-06-22T10:51:11;33.30;87.30
15343;DHT22;7771;48.478;8.936;2023-06-22T10:53:38;33.20;87.60
15343;DHT22;7771;48.478;8.936;2023-06-22T10:56:05;33.00;87.90
15343;DHT22;7771;48.478;8.936;2023-06-22T10:58:32;32.90;88.20
15343;DHT22;7771;48.478;8.936;2023-06-22T11:00:59;32.70;88.20
15343;DHT22;7771;48.478;8.936;2023-06-22T11:03:26;32.70;88.60
15343;DHT22;7771;48.478;8.936;2023-06-22T11:08:21;32.60;89.40
15343;DHT22;7771;48.478;8.936;2023-06-22T11:10:50;32.70;89.70
15343;DHT22;7771;48.478;8.936;2023-06-22T11:13:17;32.70;89.80
15343;DHT22;7771;48.478;8.936;2023-06-22T11:15:44;32.80;90.10
15343;DHT22;7771;48.478;8.936;2023-06-22T11:18:11;33.00;90.00
15343;DHT22;7771;48.478;8.936;2023-06-22T11:20:37;33.20;89.10
15343;DHT22;7771;48.478;8.936;2023-06-22T11:23:05;33.20;88.90
15343;DHT22;7771;48.478;8.936;2023-06-22T11:25:33;33.20;88.60
15343;DHT22;7771;48.478;8.936;2023-06-22T11:28:02;33.10;89.20
15343;DHT22;7771;48.478;8.936;2023-06-22T11:30:28;33.10;89.30
15343;DHT22;7771;48.478;8.936;2023-06-22T11:32:57;33.00;89.30
15343;DHT22;7771;48.478;8.936;2023-06-22T11:35:24;33.00;89.70
15343;DHT22;7771;48.478;8.936;2023-06-22T11:37:51;32.90;90.00
15343;DHT22;7771;48.478;8.936;2023-06-22T11:40:18;32.90;90.00
15343;DHT22;7771;48.478;8.936;2023-06-22T11:42:45;32.90;90.00
15343;DHT22;7771;48.478;8.936;2023-06-22T11:45:12;32.90;90.00
15343;DHT22;7771;48.478;8.936;2023-06-22T11:47:39;32.80;90.00
15343;DHT22;7771;48.478;8.936;2023-06-22T11:50:06;32.80;90.00
15343;DHT22;7771;48.478;8.936;2023-06-22T11:52:34;32.70;90.00
15343;DHT22;7771;48.478;8.936;2023-06-22T11:55:01;32.60;90.20
15343;DHT22;7771;48.478;8.936;2023-06-22T11:57:29;32.50;90.60
15343;DHT22;7771;48.478;8.936;2023-06-22T11:59:57;32.40;90.60
15343;DHT22;7771;48.478;8.936;2023-06-22T12:02:24;32.40;90.70
15343;DHT22;7771;48.478;8.936;2023-06-22T12:04:51;32.30;90.70
15343;DHT22;7771;48.478;8.936;2023-06-22T12:07:18;32.40;90.80
15343;DHT22;7771;48.478;8.936;2023-06-22T12:09:45;32.30;90.80
15343;DHT22;7771;48.478;8.936;2023-06-22T12:12:13;32.20;90.80
15343;DHT22;7771;48.478;8.936;2023-06-22T12:14:41;32.20;91.20
15343;DHT22;7771;48.478;8.936;2023-06-22T12:17:08;32.10;91.50
15343;DHT22;7771;48.478;8.936;2023-06-22T12:19:35;32.10;91.80
15343;DHT22;7771;48.478;8.936;2023-06-22T12:22:03;32.00;91.90
15343;DHT22;7771;48.478;8.936;2023-06-22T12:24:31;32.00;91.90
15343;DHT22;7771;48.478;8.936;2023-06-22T12:26:59;31.90;92.00
15343;DHT22;7771;48.478;8.936;2023-06-22T12:29:26;31.80;91.90
15343;DHT22;7771;48.478;8.936;2023-06-22T12:31:53;31.70;91.80
15343;DHT22;7771;48.478;8.936;2023-06-22T12:34:19;31.70;91.90
15343;DHT22;7771;48.478;8.936;2023-06-22T12:36:46;31.70;92.30
15343;DHT22;7771;48.478;8.936;2023-06-22T12:39:14;31.70;92.40
15343;DHT22;7771;48.478;8.936;2023-06-22T12:41:41;31.70;92.60
15343;DHT22;7771;48.478;8.936;2023-06-22T12:44:08;31.70;92.50
15343;DHT22;7771;48.478;8.936;2023-06-22T12:46:34;31.70;92.60
15343;DHT22;7771;48.478;8.936;2023-06-22T12:49:01;31.70;92.60
15343;DHT22;7771;48.478;8.936;2023-06-22T12:51:28;31.70;92.60
15343;DHT22;7771;48.478;8.936;2023-06-22T12:53:55;31.70;92.60
15343;DHT22;7771;48.478;8.936;2023-06-22T12:56:23;31.70;92.50
15343;DHT22;7771;48.478;8.936;2023-06-22T12:58:50;31.70;92.10
15343;DHT22;7771;48.478;8.936;2023-06-22T13:03:45;31.90;92.00
15343;DHT22;7771;48.478;8.936;2023-06-22T13:06:12;31.90;92.00
15343;DHT22;7771;48.478;8.936;2023-06-22T13:08:39;32.00;91.90
15343;DHT22;7771;48.478;8.936;2023-06-22T13:11:07;32.00;91.80
15343;DHT22;7771;48.478;8.936;2023-06-22T13:13:35;32.20;92.10
15343;DHT22;7771;48.478;8.936;2023-06-22T13:16:02;32.20;91.60
15343;DHT22;7771;48.478;8.936;2023-06-22T13:18:30;32.30;91.60
15343;DHT22;7771;48.478;8.936;2023-06-22T13:20:57;32.40;91.50
15343;DHT22;7771;48.478;8.936;2023-06-22T13:23:24;32.50;91.30
15343;DHT22;7771;48.478;8.936;2023-06-22T13:25:54;32.60;91.10
15343;DHT22;7771;48.478;8.936;2023-06-22T13:28:22;32.60;91.20
15343;DHT22;7771;48.478;8.936;2023-06-22T13:30:49;32.60;91.20
15343;DHT22;7771;48.478;8.936;2023-06-22T13:33:16;32.70;91.20
15343;DHT22;7771;48.478;8.936;2023-06-22T13:35:44;32.70;91.70
15343;DHT22;7771;48.478;8.936;2023-06-22T13:38:12;32.70;91.50
15343;DHT22;7771;48.478;8.936;2023-06-22T13:40:39;32.70;91.80
15343;DHT22;7771;48.478;8.936;2023-06-22T13:43:05;32.70;91.60
15343;DHT22;7771;48.478;8.936;2023-06-22T13:45:33;32.70;91.50
15343;DHT22;7771;48.478;8.936;2023-06-22T13:47:59;32.70;91.60
15343;DHT22;7771;48.478;8.936;2023-06-22T13:50:26;32.70;91.90
15343;DHT22;7771;48.478;8.936;2023-06-22T13:52:54;32.70;91.80
15343;DHT22;7771;48.478;8.936;2023-06-22T13:55:21;32.70;91.60
15343;DHT22;7771;48.478;8.936;2023-06-22T13:57:49;32.60;91.60
15343;DHT22;7771;48.478;8.936;2023-06-22T14:00:15;32.60;91.80
15343;DHT22;7771;48.478;8.936;2023-06-22T14:02:42;32.60;91.90
15343;DHT22;7771;48.478;8.936;2023-06-22T14:05:09;32.60;91.90
15343;DHT22;7771;48.478;8.936;2023-06-22T14:07:36;32.50;92.00
15343;DHT22;7771;48.478;8.936;2023-06-22T14:10:03;32.50;92.20
15343;DHT22;7771;48.478;8.936;2023-06-22T14:15:00;32.70;92.40
15343;DHT22;7771;48.478;8.936;2023-06-22T14:17:26;32.80;92.60
15343;DHT22;7771;48.478;8.936;2023-06-22T14:22:22;33.10;92.20
15343;DHT22;7771;48.478;8.936;2023-06-22T14:24:50;33.20;91.90
15343;DHT22;7771;48.478;8.936;2023-06-22T14:29:45;33.60;91.50
15343;DHT22;7771;48.478;8.936;2023-06-22T14:32:13;33.70;89.90
15343;DHT22;7771;48.478;8.936;2023-06-22T14:34:40;33.80;88.90
15343;DHT22;7771;48.478;8.936;2023-06-22T14:37:08;33.90;88.60
15343;DHT22;7771;48.478;8.936;2023-06-22T14:39:37;33.80;84.80
15343;DHT22;7771;48.478;8.936;2023-06-22T14:42:03;33.80;83.00
15343;DHT22;7771;48.478;8.936;2023-06-22T14:46:59;33.60;80.40
15343;DHT22;7771;48.478;8.936;2023-06-22T14:49:27;33.50;79.10
15343;DHT22;7771;48.478;8.936;2023-06-22T14:51:53;33.40;78.80
15343;DHT22;7771;48.478;8.936;2023-06-22T14:54:20;33.40;77.80
15343;DHT22;7771;48.478;8.936;2023-06-22T14:56:47;33.40;76.70
15343;DHT22;7771;48.478;8.936;2023-06-22T14:59:14;33.40;74.90
15343;DHT22;7771;48.478;8.936;2023-06-22T15:01:41;33.40;72.90
15343;DHT22;7771;48.478;8.936;2023-06-22T15:04:09;33.30;71.70
15343;DHT22;7771;48.478;8.936;2023-06-22T15:06:36;33.20;71.10
15343;DHT22;7771;48.478;8.936;2023-06-22T15:09:02;33.20;70.80
15343;DHT22;7771;48.478;8.936;2023-06-22T15:13:59;33.00;70.80
15343;DHT22;7771;48.478;8.936;2023-06-22T15:16:26;32.90;68.20
15343;DHT22;7771;48.478;8.936;2023-06-22T15:18:53;32.80;68.50
15343;DHT22;7771;48.478;8.936;2023-06-22T15:26:16;32.60;69.10
15343;DHT22;7771;48.478;8.936;2023-06-22T15:31:12;32.50;71.20
15343;DHT22;7771;48.478;8.936;2023-06-22T15:33:39;32.40;71.80
15343;DHT22;7771;48.478;8.936;2023-06-22T15:38:35;32.20;72.00
15343;DHT22;7771;48.478;8.936;2023-06-22T15:41:01;32.10;72.40
15343;DHT22;7771;48.478;8.936;2023-06-22T15:45:56;31.80;73.90
15343;DHT22;7771;48.478;8.936;2023-06-22T15:48:23;31.70;74.70
15343;DHT22;7771;48.478;8.936;2023-06-22T15:50:52;31.70;74.90
15343;DHT22;7771;48.478;8.936;2023-06-22T15:53:18;31.50;75.00
15343;DHT22;7771;48.478;8.936;2023-06-22T15:55:46;31.50;75.00
15343;DHT22;7771;48.478;8.936;2023-06-22T15:58:13;31.40;74.70
15343;DHT22;7771;48.478;8.936;2023-06-22T16:00:41;31.30;75.70
15343;DHT22;7771;48.478;8.936;2023-06-22T16:03:08;31.30;75.40
15343;DHT22;7771;48.478;8.936;2023-06-22T16:08:08;31.10;76.10
15343;DHT22;7771;48.478;8.936;2023-06-22T16:10:33;31.10;76.50
15343;DHT22;7771;48.478;8.936;2023-06-22T16:13:01;30.90;77.20
15343;DHT22;7771;48.478;8.936;2023-06-22T16:15:28;30.90;79.10
15343;DHT22;7771;48.478;8.936;2023-06-22T16:17:55;30.80;79.70
15343;DHT22;7771;48.478;8.936;2023-06-22T16:20:22;30.70;80.10
15343;DHT22;7771;48.478;8.936;2023-06-22T16:22:49;30.70;80.00
15343;DHT22;7771;48.478;8.936;2023-06-22T16:25:16;30.50;80.50
15343;DHT22;7771;48.478;8.936;2023-06-22T16:30:11;30.40;81.80
15343;DHT22;7771;48.478;8.936;2023-06-22T16:32:37;30.40;82.10
15343;DHT22;7771;48.478;8.936;2023-06-22T16:35:06;30.40;81.10
15343;DHT22;7771;48.478;8.936;2023-06-22T16:40:02;30.60;80.40
15343;DHT22;7771;48.478;8.936;2023-06-22T16:44:56;30.70;77.70
15343;DHT22;7771;48.478;8.936;2023-06-22T16:52:21;30.60;78.00
15343;DHT22;7771;48.478;8.936;2023-06-22T16:54:49;30.50;77.40
15343;DHT22;7771;48.478;8.936;2023-06-22T16:59:44;30.30;77.00
15343;DHT22;7771;48.478;8.936;2023-06-22T17:07:10;30.00;77.00
15343;DHT22;7771;48.478;8.936;2023-06-22T17:09:34;29.90;77.10
15343;DHT22;7771;48.478;8.936;2023-06-22T17:14:31;29.70;77.80
15343;DHT22;7771;48.478;8.936;2023-06-22T17:16:57;29.60;77.30
15343;DHT22;7771;48.478;8.936;2023-06-22T17:24:21;29.30;77.90
15343;DHT22;7771;48.478;8.936;2023-06-22T17:26:49;29.30;77.20
15343;DHT22;7771;48.478;8.936;2023-06-22T17:29:15;29.20;76.80
15343;DHT22;7771;48.478;8.936;2023-06-22T17:31:42;29.10;77.10
15343;DHT22;7771;48.478;8.936;2023-06-22T17:34:10;28.90;77.50
15343;DHT22;7771;48.478;8.936;2023-06-22T17:36:41;28.70;78.30
15343;DHT22;7771;48.478;8.936;2023-06-22T17:39:09;28.50;78.80
15343;DHT22;7771;48.478;8.936;2023-06-22T17:44:03;28.20;79.90
15343;DHT22;7771;48.478;8.936;2023-06-22T17:46:33;28.00;80.80